sensor_id;sensor_type;location;lat;lon;timestamp;temperature;humidity
13186;DHT22;6658;53.080;7.428;2022-08-11T00:01:14;16.40;99.90
13186;DHT22;6658;53.080;7.428;2022-08-11T00:03:46;16.40;99.90
13186;DHT22;6658;53.080;7.428;2022-08-11T00:06:14;16.40;99.90
13186;DHT22;6658;53.080;7.428;2022-08-11T00:08:49;16.30;99.90
13186;DHT22;6658;53.080;7.428;2022-08-11T00:11:16;16.30;99.90
13186;DHT22;6658;53.080;7.428;2022-08-11T00:13:44;16.30;99.90
13186;DHT22;6658;53.080;7.428;2022-08-11T00:16:14;16.30;99.90
13186;DHT22;6658;53.080;7.428;2022-08-11T00:18:49;16.30;99.90
13186;DHT22;6658;53.080;7.428;2022-08-11T00:21:16;16.20;99.90
13186;DHT22;6658;53.080;7.428;2022-08-11T00:23:45;16.20;99.90
13186;DHT22;6658;53.080;7.428;2022-08-11T00:26:13;16.20;99.90
13186;DHT22;6658;53.080;7.428;2022-08-11T00:28:40;16.10;99.90
13186;DHT22;6658;53.080;7.428;2022-08-11T00:31:27;16.10;99.90
13186;DHT22;6658;53.080;7.428;2022-08-11T00:33:53;16.10;99.90
13186;DHT22;6658;53.080;7.428;2022-08-11T00:36:25;16.10;99.90
13186;DHT22;6658;53.080;7.428;2022-08-11T00:38:53;16.10;99.90
13186;DHT22;6658;53.080;7.428;2022-08-11T00:41:38;16.00;99.90
13186;DHT22;6658;53.080;7.428;2022-08-11T01:00:23;15.80;99.90
13186;DHT22;6658;53.080;7.428;2022-08-11T01:03:11;15.80;99.90
13186;DHT22;6658;53.080;7.428;2022-08-11T01:26:27;15.90;99.90
13186;DHT22;6658;53.080;7.428;2022-08-11T01:32:14;15.80;99.90
13186;DHT22;6658;53.080;7.428;2022-08-11T01:53:30;15.70;99.90
13186;DHT22;6658;53.080;7.428;2022-08-11T02:07:51;15.60;99.90
13186;DHT22;6658;53.080;7.428;2022-08-11T02:10:35;15.60;99.90
13186;DHT22;6658;53.080;7.428;2022-08-11T02:13:33;15.60;99.90
13186;DHT22;6658;53.080;7.428;2022-08-11T02:16:28;15.60;99.90
13186;DHT22;6658;53.080;7.428;2022-08-11T02:19:21;15.50;99.90
13186;DHT22;6658;53.080;7.428;2022-08-11T02:25:06;15.50;99.90
13186;DHT22;6658;53.080;7.428;2022-08-11T02:27:44;15.40;99.90
13186;DHT22;6658;53.080;7.428;2022-08-11T02:30:13;15.40;99.90
13186;DHT22;6658;53.080;7.428;2022-08-11T02:35:56;15.40;99.90
13186;DHT22;6658;53.080;7.428;2022-08-11T02:47:22;15.30;99.90
13186;DHT22;6658;53.080;7.428;2022-08-11T02:52:49;15.30;99.90
13186;DHT22;6658;53.080;7.428;2022-08-11T02:55:21;15.20;99.90
13186;DHT22;6658;53.080;7.428;2022-08-11T02:58:13;15.20;99.90
13186;DHT22;6658;53.080;7.428;2022-08-11T03:01:03;15.10;99.90
13186;DHT22;6658;53.080;7.428;2022-08-11T03:03:37;15.10;99.90
13186;DHT22;6658;53.080;7.428;2022-08-11T03:09:18;15.00;99.90
13186;DHT22;6658;53.080;7.428;2022-08-11T03:12:05;15.00;99.90
13186;DHT22;6658;53.080;7.428;2022-08-11T03:15:02;14.90;99.90
13186;DHT22;6658;53.080;7.428;2022-08-11T03:21:46;14.90;99.90
13186;DHT22;6658;53.080;7.428;2022-08-11T03:24:02;14.90;99.90
13186;DHT22;6658;53.080;7.428;2022-08-11T03:29:19;14.80;99.90
13186;DHT22;6658;53.080;7.428;2022-08-11T03:31:54;14.80;99.90
13186;DHT22;6658;53.080;7.428;2022-08-11T03:34:24;14.80;99.90
13186;DHT22;6658;53.080;7.428;2022-08-11T03:37:20;14.80;99.90
13186;DHT22;6658;53.080;7.428;2022-08-11T03:41:12;14.80;99.90
13186;DHT22;6658;53.080;7.428;2022-08-11T04:00:22;14.90;99.90
13186;DHT22;6658;53.080;7.428;2022-08-11T04:03:32;14.80;99.90
13186;DHT22;6658;53.080;7.428;2022-08-11T04:18:24;14.70;99.90
13186;DHT22;6658;53.080;7.428;2022-08-11T04:29:56;14.90;99.90
13186;DHT22;6658;53.080;7.428;2022-08-11T04:40:55;14.90;99.90
13186;DHT22;6658;53.080;7.428;2022-08-11T04:55:28;15.20;99.90
13186;DHT22;6658;53.080;7.428;2022-08-11T04:58:20;15.20;99.90
13186;DHT22;6658;53.080;7.428;2022-08-11T05:13:08;16.10;99.90
13186;DHT22;6658;53.080;7.428;2022-08-11T05:15:56;16.30;99.90
13186;DHT22;6658;53.080;7.428;2022-08-11T05:18:50;16.40;99.90
13186;DHT22;6658;53.080;7.428;2022-08-11T05:21:36;16.50;99.90
13186;DHT22;6658;53.080;7.428;2022-08-11T05:24:25;16.50;99.90
13186;DHT22;6658;53.080;7.428;2022-08-11T05:27:14;16.50;99.90
13186;DHT22;6658;53.080;7.428;2022-08-11T05:30:06;16.50;99.90
13186;DHT22;6658;53.080;7.428;2022-08-11T05:33:05;16.50;99.90
13186;DHT22;6658;53.080;7.428;2022-08-11T05:35:59;16.60;99.90
13186;DHT22;6658;53.080;7.428;2022-08-11T05:38:29;16.60;99.90
13186;DHT22;6658;53.080;7.428;2022-08-11T05:41:19;16.70;99.90
13186;DHT22;6658;53.080;7.428;2022-08-11T05:44:05;16.70;99.90
13186;DHT22;6658;53.080;7.428;2022-08-11T05:46:50;16.80;99.90
13186;DHT22;6658;53.080;7.428;2022-08-11T05:49:35;16.90;99.90
13186;DHT22;6658;53.080;7.428;2022-08-11T05:52:23;17.10;99.90
13186;DHT22;6658;53.080;7.428;2022-08-11T05:55:09;17.20;99.90
13186;DHT22;6658;53.080;7.428;2022-08-11T05:58:00;17.30;99.90
13186;DHT22;6658;53.080;7.428;2022-08-11T06:00:26;17.40;99.90
13186;DHT22;6658;53.080;7.428;2022-08-11T06:02:54;17.50;99.90
13186;DHT22;6658;53.080;7.428;2022-08-11T06:05:21;17.60;99.90
13186;DHT22;6658;53.080;7.428;2022-08-11T06:07:48;17.60;99.90
13186;DHT22;6658;53.080;7.428;2022-08-11T06:10:31;17.60;99.90
13186;DHT22;6658;53.080;7.428;2022-08-11T06:13:01;17.70;99.90
13186;DHT22;6658;53.080;7.428;2022-08-11T06:15:31;17.80;99.90
13186;DHT22;6658;53.080;7.428;2022-08-11T06:17:59;17.90;99.90
13186;DHT22;6658;53.080;7.428;2022-08-11T06:20:28;18.00;99.90
13186;DHT22;6658;53.080;7.428;2022-08-11T06:23:03;18.00;99.90
13186;DHT22;6658;53.080;7.428;2022-08-11T06:25:31;18.10;99.90
13186;DHT22;6658;53.080;7.428;2022-08-11T06:27:58;18.20;99.90
13186;DHT22;6658;53.080;7.428;2022-08-11T06:30:38;18.40;99.90
13186;DHT22;6658;53.080;7.428;2022-08-11T06:33:30;18.40;99.90
13186;DHT22;6658;53.080;7.428;2022-08-11T06:36:26;18.50;99.90
13186;DHT22;6658;53.080;7.428;2022-08-11T06:46:48;18.90;99.90
13186;DHT22;6658;53.080;7.428;2022-08-11T06:49:17;19.10;99.90
13186;DHT22;6658;53.080;7.428;2022-08-11T06:52:08;19.20;99.90
13186;DHT22;6658;53.080;7.428;2022-08-11T06:54:49;19.30;99.90
13186;DHT22;6658;53.080;7.428;2022-08-11T06:57:19;19.40;99.90
13186;DHT22;6658;53.080;7.428;2022-08-11T07:00:04;19.50;99.90
13186;DHT22;6658;53.080;7.428;2022-08-11T07:02:53;19.70;99.90
13186;DHT22;6658;53.080;7.428;2022-08-11T07:14:37;20.30;99.90
13186;DHT22;6658;53.080;7.428;2022-08-11T07:17:24;20.50;99.90
13186;DHT22;6658;53.080;7.428;2022-08-11T07:19:57;20.70;99.90
13186;DHT22;6658;53.080;7.428;2022-08-11T07:22:49;20.90;99.90
13186;DHT22;6658;53.080;7.428;2022-08-11T07:25:38;21.10;99.90
13186;DHT22;6658;53.080;7.428;2022-08-11T07:28:28;21.30;99.90
13186;DHT22;6658;53.080;7.428;2022-08-11T07:31:18;21.50;99.90
13186;DHT22;6658;53.080;7.428;2022-08-11T07:33:48;21.80;99.90
13186;DHT22;6658;53.080;7.428;2022-08-11T07:36:15;22.10;99.90
13186;DHT22;6658;53.080;7.428;2022-08-11T07:38:47;22.50;99.90
13186;DHT22;6658;53.080;7.428;2022-08-11T07:41:21;23.00;99.90
13186;DHT22;6658;53.080;7.428;2022-08-11T07:43:54;23.50;99.90
13186;DHT22;6658;53.080;7.428;2022-08-11T07:46:20;23.80;99.90
13186;DHT22;6658;53.080;7.428;2022-08-11T07:49:07;24.30;99.90
13186;DHT22;6658;53.080;7.428;2022-08-11T07:51:53;24.50;99.90
13186;DHT22;6658;53.080;7.428;2022-08-11T07:54:38;24.90;99.90
13186;DHT22;6658;53.080;7.428;2022-08-11T07:57:07;25.20;99.90
13186;DHT22;6658;53.080;7.428;2022-08-11T07:59:52;25.20;99.90
13186;DHT22;6658;53.080;7.428;2022-08-11T08:02:38;25.40;99.90
13186;DHT22;6658;53.080;7.428;2022-08-11T08:05:24;25.50;99.90
13186;DHT22;6658;53.080;7.428;2022-08-11T08:08:09;26.10;99.90
13186;DHT22;6658;53.080;7.428;2022-08-11T08:10:55;26.50;99.90
13186;DHT22;6658;53.080;7.428;2022-08-11T08:13:41;26.40;99.90
13186;DHT22;6658;53.080;7.428;2022-08-11T08:16:26;26.60;99.90
13186;DHT22;6658;53.080;7.428;2022-08-11T08:19:14;27.10;99.90
13186;DHT22;6658;53.080;7.428;2022-08-11T08:21:41;27.60;99.80
13186;DHT22;6658;53.080;7.428;2022-08-11T08:24:08;28.20;99.90
13186;DHT22;6658;53.080;7.428;2022-08-11T08:26:35;28.60;98.80
13186;DHT22;6658;53.080;7.428;2022-08-11T08:29:20;28.70;96.70
13186;DHT22;6658;53.080;7.428;2022-08-11T08:32:06;28.50;92.60
13186;DHT22;6658;53.080;7.428;2022-08-11T08:34:34;28.10;93.30
13186;DHT22;6658;53.080;7.428;2022-08-11T08:37:01;28.10;93.90
13186;DHT22;6658;53.080;7.428;2022-08-11T08:39:27;28.60;93.90
13186;DHT22;6658;53.080;7.428;2022-08-11T08:41:56;29.10;94.10
13186;DHT22;6658;53.080;7.428;2022-08-11T08:44:26;29.30;92.00
13186;DHT22;6658;53.080;7.428;2022-08-11T08:46:56;29.10;93.30
13186;DHT22;6658;53.080;7.428;2022-08-11T08:49:28;29.40;90.80
13186;DHT22;6658;53.080;7.428;2022-08-11T08:51:58;29.20;92.10
13186;DHT22;6658;53.080;7.428;2022-08-11T08:54:36;29.60;90.50
13186;DHT22;6658;53.080;7.428;2022-08-11T08:57:04;29.90;88.10
13186;DHT22;6658;53.080;7.428;2022-08-11T08:59:32;29.60;85.30
13186;DHT22;6658;53.080;7.428;2022-08-11T09:02:02;30.20;88.90
13186;DHT22;6658;53.080;7.428;2022-08-11T09:04:29;30.70;83.30
13186;DHT22;6658;53.080;7.428;2022-08-11T09:06:58;31.20;84.70
13186;DHT22;6658;53.080;7.428;2022-08-11T09:09:25;31.80;81.50
13186;DHT22;6658;53.080;7.428;2022-08-11T09:11:51;31.70;78.40
13186;DHT22;6658;53.080;7.428;2022-08-11T09:14:35;31.50;77.90
13186;DHT22;6658;53.080;7.428;2022-08-11T09:17:21;31.50;78.90
13186;DHT22;6658;53.080;7.428;2022-08-11T09:19:51;31.70;73.90
13186;DHT22;6658;53.080;7.428;2022-08-11T09:22:28;31.70;73.30
13186;DHT22;6658;53.080;7.428;2022-08-11T09:25:14;32.00;76.00
13186;DHT22;6658;53.080;7.428;2022-08-11T09:27:59;32.70;77.10
13186;DHT22;6658;53.080;7.428;2022-08-11T09:30:26;32.30;74.50
13186;DHT22;6658;53.080;7.428;2022-08-11T09:32:53;32.80;71.80
13186;DHT22;6658;53.080;7.428;2022-08-11T09:35:24;32.70;68.50
13186;DHT22;6658;53.080;7.428;2022-08-11T09:37:52;32.80;67.20
13186;DHT22;6658;53.080;7.428;2022-08-11T09:40:37;32.50;71.00
13186;DHT22;6658;53.080;7.428;2022-08-11T09:43:05;33.00;65.60
13186;DHT22;6658;53.080;7.428;2022-08-11T09:45:53;33.40;67.00
13186;DHT22;6658;53.080;7.428;2022-08-11T09:48:22;33.00;65.90
13186;DHT22;6658;53.080;7.428;2022-08-11T09:50:50;33.30;64.20
13186;DHT22;6658;53.080;7.428;2022-08-11T09:53:17;32.20;63.40
13186;DHT22;6658;53.080;7.428;2022-08-11T09:55:45;32.00;66.20
13186;DHT22;6658;53.080;7.428;2022-08-11T09:58:12;32.00;64.50
13186;DHT22;6658;53.080;7.428;2022-08-11T10:00:39;31.80;64.90
13186;DHT22;6658;53.080;7.428;2022-08-11T10:03:12;32.10;64.60
13186;DHT22;6658;53.080;7.428;2022-08-11T10:05:39;32.80;61.60
13186;DHT22;6658;53.080;7.428;2022-08-11T10:08:29;33.30;61.90
13186;DHT22;6658;53.080;7.428;2022-08-11T10:10:55;33.50;59.50
13186;DHT22;6658;53.080;7.428;2022-08-11T10:13:27;33.20;60.60
13186;DHT22;6658;53.080;7.428;2022-08-11T10:16:00;32.90;62.30
13186;DHT22;6658;53.080;7.428;2022-08-11T10:18:40;32.90;59.40
13186;DHT22;6658;53.080;7.428;2022-08-11T10:21:13;33.50;60.40
13186;DHT22;6658;53.080;7.428;2022-08-11T10:23:40;34.90;59.10
13186;DHT22;6658;53.080;7.428;2022-08-11T10:26:28;35.60;57.10
13186;DHT22;6658;53.080;7.428;2022-08-11T10:29:13;36.20;54.00
13186;DHT22;6658;53.080;7.428;2022-08-11T10:31:59;36.30;56.00
13186;DHT22;6658;53.080;7.428;2022-08-11T10:37:51;36.40;53.00
13186;DHT22;6658;53.080;7.428;2022-08-11T10:40:20;36.60;54.70
13186;DHT22;6658;53.080;7.428;2022-08-11T10:42:49;37.20;54.20
13186;DHT22;6658;53.080;7.428;2022-08-11T10:45:38;36.80;52.30
13186;DHT22;6658;53.080;7.428;2022-08-11T10:48:24;37.40;51.90
13186;DHT22;6658;53.080;7.428;2022-08-11T10:50:51;36.60;51.80
13186;DHT22;6658;53.080;7.428;2022-08-11T10:53:42;36.90;52.80
13186;DHT22;6658;53.080;7.428;2022-08-11T10:56:28;37.30;52.10
13186;DHT22;6658;53.080;7.428;2022-08-11T10:59:15;37.80;50.00
13186;DHT22;6658;53.080;7.428;2022-08-11T11:01:42;38.20;50.20
13186;DHT22;6658;53.080;7.428;2022-08-11T11:04:16;37.60;49.30
13186;DHT22;6658;53.080;7.428;2022-08-11T11:07:07;37.20;49.90
13186;DHT22;6658;53.080;7.428;2022-08-11T11:12:24;36.70;49.70
13186;DHT22;6658;53.080;7.428;2022-08-11T11:15:12;37.10;49.00
13186;DHT22;6658;53.080;7.428;2022-08-11T11:18:02;37.20;49.70
13186;DHT22;6658;53.080;7.428;2022-08-11T11:20:44;37.70;49.10
13186;DHT22;6658;53.080;7.428;2022-08-11T11:23:18;37.20;48.70
13186;DHT22;6658;53.080;7.428;2022-08-11T11:31:30;37.60;49.40
13186;DHT22;6658;53.080;7.428;2022-08-11T11:36:48;36.60;49.90
13186;DHT22;6658;53.080;7.428;2022-08-11T11:39:22;36.40;49.20
13186;DHT22;6658;53.080;7.428;2022-08-11T11:41:51;36.70;49.50
13186;DHT22;6658;53.080;7.428;2022-08-11T11:44:19;36.30;48.20
13186;DHT22;6658;53.080;7.428;2022-08-11T11:46:45;36.30;48.70
13186;DHT22;6658;53.080;7.428;2022-08-11T11:49:12;36.20;48.80
13186;DHT22;6658;53.080;7.428;2022-08-11T11:51:40;35.90;48.70
13186;DHT22;6658;53.080;7.428;2022-08-11T11:54:06;35.40;49.70
13186;DHT22;6658;53.080;7.428;2022-08-11T11:56:33;35.20;50.60
13186;DHT22;6658;53.080;7.428;2022-08-11T11:58:59;34.90;50.50
13186;DHT22;6658;53.080;7.428;2022-08-11T12:01:43;33.80;50.90
13186;DHT22;6658;53.080;7.428;2022-08-11T12:04:11;32.50;52.00
13186;DHT22;6658;53.080;7.428;2022-08-11T12:06:37;31.90;53.70
13186;DHT22;6658;53.080;7.428;2022-08-11T12:09:04;31.40;54.20
13186;DHT22;6658;53.080;7.428;2022-08-11T12:11:30;31.10;55.30
13186;DHT22;6658;53.080;7.428;2022-08-11T12:14:32;30.70;55.10
13186;DHT22;6658;53.080;7.428;2022-08-11T12:16:58;30.50;56.40
13186;DHT22;6658;53.080;7.428;2022-08-11T12:19:25;30.30;56.10
13186;DHT22;6658;53.080;7.428;2022-08-11T12:21:54;30.10;57.50
13186;DHT22;6658;53.080;7.428;2022-08-11T12:24:39;30.20;56.70
13186;DHT22;6658;53.080;7.428;2022-08-11T12:27:26;30.20;57.40
13186;DHT22;6658;53.080;7.428;2022-08-11T12:29:56;30.00;57.00
13186;DHT22;6658;53.080;7.428;2022-08-11T12:32:25;29.90;58.80
13186;DHT22;6658;53.080;7.428;2022-08-11T12:34:51;29.80;57.10
13186;DHT22;6658;53.080;7.428;2022-08-11T12:37:22;29.50;57.00
13186;DHT22;6658;53.080;7.428;2022-08-11T12:39:51;29.50;59.00
13186;DHT22;6658;53.080;7.428;2022-08-11T12:42:37;29.50;59.20
13186;DHT22;6658;53.080;7.428;2022-08-11T12:45:25;29.50;59.00
13186;DHT22;6658;53.080;7.428;2022-08-11T12:48:12;29.30;58.60
13186;DHT22;6658;53.080;7.428;2022-08-11T12:51:07;29.30;59.50
13186;DHT22;6658;53.080;7.428;2022-08-11T12:54:13;29.30;60.30
13186;DHT22;6658;53.080;7.428;2022-08-11T12:56:46;29.30;59.10
13186;DHT22;6658;53.080;7.428;2022-08-11T12:59:31;29.50;59.80
13186;DHT22;6658;53.080;7.428;2022-08-11T13:02:18;29.40;59.50
13186;DHT22;6658;53.080;7.428;2022-08-11T13:05:06;29.50;59.00
13186;DHT22;6658;53.080;7.428;2022-08-11T13:07:33;29.40;59.50
13186;DHT22;6658;53.080;7.428;2022-08-11T13:10:01;29.40;59.90
13186;DHT22;6658;53.080;7.428;2022-08-11T13:12:28;29.50;59.70
13186;DHT22;6658;53.080;7.428;2022-08-11T13:15:21;29.50;59.60
13186;DHT22;6658;53.080;7.428;2022-08-11T13:17:50;29.50;59.60
13186;DHT22;6658;53.080;7.428;2022-08-11T13:20:21;29.50;60.10
13186;DHT22;6658;53.080;7.428;2022-08-11T13:22:50;29.50;60.40
13186;DHT22;6658;53.080;7.428;2022-08-11T13:25:19;29.60;61.80
13186;DHT22;6658;53.080;7.428;2022-08-11T13:27:46;29.50;60.90
13186;DHT22;6658;53.080;7.428;2022-08-11T13:30:16;29.50;60.00
13186;DHT22;6658;53.080;7.428;2022-08-11T13:33:03;29.50;59.60
13186;DHT22;6658;53.080;7.428;2022-08-11T13:35:32;29.70;60.00
13186;DHT22;6658;53.080;7.428;2022-08-11T13:38:00;29.70;59.90
13186;DHT22;6658;53.080;7.428;2022-08-11T13:40:27;29.70;59.10
13186;DHT22;6658;53.080;7.428;2022-08-11T13:42:54;29.60;59.40
13186;DHT22;6658;53.080;7.428;2022-08-11T13:45:22;29.50;59.40
13186;DHT22;6658;53.080;7.428;2022-08-11T13:47:49;29.50;61.10
13186;DHT22;6658;53.080;7.428;2022-08-11T13:50:16;29.60;59.80
13186;DHT22;6658;53.080;7.428;2022-08-11T13:52:43;29.60;60.70
13186;DHT22;6658;53.080;7.428;2022-08-11T13:55:11;29.60;60.70
13186;DHT22;6658;53.080;7.428;2022-08-11T13:57:51;29.60;60.70
13186;DHT22;6658;53.080;7.428;2022-08-11T14:00:18;29.60;60.40
13186;DHT22;6658;53.080;7.428;2022-08-11T14:02:47;29.60;60.70
13186;DHT22;6658;53.080;7.428;2022-08-11T14:05:16;29.50;60.30
13186;DHT22;6658;53.080;7.428;2022-08-11T14:07:49;29.50;61.00
13186;DHT22;6658;53.080;7.428;2022-08-11T14:10:17;29.50;59.60
13186;DHT22;6658;53.080;7.428;2022-08-11T14:12:50;29.50;61.10
13186;DHT22;6658;53.080;7.428;2022-08-11T14:15:40;29.50;59.50
13186;DHT22;6658;53.080;7.428;2022-08-11T14:18:12;29.50;59.90
13186;DHT22;6658;53.080;7.428;2022-08-11T14:20:41;29.50;61.10
13186;DHT22;6658;53.080;7.428;2022-08-11T14:23:34;29.50;59.60
13186;DHT22;6658;53.080;7.428;2022-08-11T14:26:02;29.50;59.80
13186;DHT22;6658;53.080;7.428;2022-08-11T14:28:46;29.60;60.30
13186;DHT22;6658;53.080;7.428;2022-08-11T14:31:15;29.60;58.90
13186;DHT22;6658;53.080;7.428;2022-08-11T14:33:43;29.60;59.60
13186;DHT22;6658;53.080;7.428;2022-08-11T14:36:10;29.50;58.50
13186;DHT22;6658;53.080;7.428;2022-08-11T14:38:38;29.60;58.70
13186;DHT22;6658;53.080;7.428;2022-08-11T14:41:06;29.50;57.60
13186;DHT22;6658;53.080;7.428;2022-08-11T14:43:53;29.50;58.00
13186;DHT22;6658;53.080;7.428;2022-08-11T14:46:39;29.60;57.80
13186;DHT22;6658;53.080;7.428;2022-08-11T14:49:25;29.60;58.10
13186;DHT22;6658;53.080;7.428;2022-08-11T14:51:51;29.50;59.40
13186;DHT22;6658;53.080;7.428;2022-08-11T14:54:27;29.50;57.80
13186;DHT22;6658;53.080;7.428;2022-08-11T14:57:12;29.40;57.70
13186;DHT22;6658;53.080;7.428;2022-08-11T14:59:38;29.40;58.10
13186;DHT22;6658;53.080;7.428;2022-08-11T15:02:04;29.40;57.80
13186;DHT22;6658;53.080;7.428;2022-08-11T15:04:50;29.40;57.40
13186;DHT22;6658;53.080;7.428;2022-08-11T15:07:16;29.40;56.70
13186;DHT22;6658;53.080;7.428;2022-08-11T15:09:43;29.30;57.10
13186;DHT22;6658;53.080;7.428;2022-08-11T15:12:10;29.40;58.40
13186;DHT22;6658;53.080;7.428;2022-08-11T15:14:45;29.40;59.80
13186;DHT22;6658;53.080;7.428;2022-08-11T15:17:31;29.40;59.90
13186;DHT22;6658;53.080;7.428;2022-08-11T15:20:06;29.40;61.30
13186;DHT22;6658;53.080;7.428;2022-08-11T15:22:51;29.30;61.10
13186;DHT22;6658;53.080;7.428;2022-08-11T15:25:35;29.30;62.40
13186;DHT22;6658;53.080;7.428;2022-08-11T15:28:03;29.40;61.30
13186;DHT22;6658;53.080;7.428;2022-08-11T15:30:53;29.50;61.20
13186;DHT22;6658;53.080;7.428;2022-08-11T15:33:39;29.40;61.50
13186;DHT22;6658;53.080;7.428;2022-08-11T15:36:27;29.40;62.40
13186;DHT22;6658;53.080;7.428;2022-08-11T15:39:18;29.30;62.60
13186;DHT22;6658;53.080;7.428;2022-08-11T15:42:08;29.30;63.00
13186;DHT22;6658;53.080;7.428;2022-08-11T15:44:57;29.30;63.60
13186;DHT22;6658;53.080;7.428;2022-08-11T15:47:49;29.30;62.40
13186;DHT22;6658;53.080;7.428;2022-08-11T15:50:24;29.20;61.30
13186;DHT22;6658;53.080;7.428;2022-08-11T15:52:59;29.20;61.00
13186;DHT22;6658;53.080;7.428;2022-08-11T15:55:28;29.20;62.00
13186;DHT22;6658;53.080;7.428;2022-08-11T15:58:02;29.20;61.40
13186;DHT22;6658;53.080;7.428;2022-08-11T16:00:49;29.10;61.30
13186;DHT22;6658;53.080;7.428;2022-08-11T16:03:44;29.10;62.30
13186;DHT22;6658;53.080;7.428;2022-08-11T16:06:32;29.10;61.50
13186;DHT22;6658;53.080;7.428;2022-08-11T16:09:00;29.00;61.50
13186;DHT22;6658;53.080;7.428;2022-08-11T16:11:28;29.00;65.10
13186;DHT22;6658;53.080;7.428;2022-08-11T16:13:55;29.00;66.90
13186;DHT22;6658;53.080;7.428;2022-08-11T16:16:40;28.90;67.00
13186;DHT22;6658;53.080;7.428;2022-08-11T16:19:07;28.90;68.30
13186;DHT22;6658;53.080;7.428;2022-08-11T16:21:36;28.90;67.70
13186;DHT22;6658;53.080;7.428;2022-08-11T16:24:07;28.80;68.20
13186;DHT22;6658;53.080;7.428;2022-08-11T16:26:36;28.80;67.70
13186;DHT22;6658;53.080;7.428;2022-08-11T16:29:04;28.70;68.90
13186;DHT22;6658;53.080;7.428;2022-08-11T16:31:31;28.70;67.90
13186;DHT22;6658;53.080;7.428;2022-08-11T16:33:58;28.60;68.90
13186;DHT22;6658;53.080;7.428;2022-08-11T16:36:24;28.60;68.00
13186;DHT22;6658;53.080;7.428;2022-08-11T16:39:11;28.50;68.70
13186;DHT22;6658;53.080;7.428;2022-08-11T16:41:39;28.50;69.60
13186;DHT22;6658;53.080;7.428;2022-08-11T16:44:26;28.50;70.10
13186;DHT22;6658;53.080;7.428;2022-08-11T16:47:17;28.50;70.00
13186;DHT22;6658;53.080;7.428;2022-08-11T16:49:53;28.40;69.70
13186;DHT22;6658;53.080;7.428;2022-08-11T16:52:23;28.30;69.50
13186;DHT22;6658;53.080;7.428;2022-08-11T16:54:49;28.20;70.40
13186;DHT22;6658;53.080;7.428;2022-08-11T16:57:19;28.10;70.80
13186;DHT22;6658;53.080;7.428;2022-08-11T17:00:06;28.10;71.00
13186;DHT22;6658;53.080;7.428;2022-08-11T17:02:41;28.00;71.50
13186;DHT22;6658;53.080;7.428;2022-08-11T17:05:32;28.00;71.50
13186;DHT22;6658;53.080;7.428;2022-08-11T17:08:20;28.00;72.10
13186;DHT22;6658;53.080;7.428;2022-08-11T17:11:09;27.90;72.40
13186;DHT22;6658;53.080;7.428;2022-08-11T17:13:59;27.90;73.10
13186;DHT22;6658;53.080;7.428;2022-08-11T17:16:31;27.90;73.00
13186;DHT22;6658;53.080;7.428;2022-08-11T17:21:28;27.80;73.20
13186;DHT22;6658;53.080;7.428;2022-08-11T17:24:05;27.80;73.70
13186;DHT22;6658;53.080;7.428;2022-08-11T17:26:40;27.70;73.20
13186;DHT22;6658;53.080;7.428;2022-08-11T17:29:27;27.70;73.60
13186;DHT22;6658;53.080;7.428;2022-08-11T17:31:54;27.70;73.80
13186;DHT22;6658;53.080;7.428;2022-08-11T17:34:42;27.60;74.40
13186;DHT22;6658;53.080;7.428;2022-08-11T17:37:28;27.60;74.10
13186;DHT22;6658;53.080;7.428;2022-08-11T17:39:56;27.50;75.20
13186;DHT22;6658;53.080;7.428;2022-08-11T17:42:23;27.40;74.80
13186;DHT22;6658;53.080;7.428;2022-08-11T17:45:10;27.40;76.00
13186;DHT22;6658;53.080;7.428;2022-08-11T17:47:56;27.40;75.60
13186;DHT22;6658;53.080;7.428;2022-08-11T17:50:42;27.50;75.40
13186;DHT22;6658;53.080;7.428;2022-08-11T17:53:10;27.50;75.10
13186;DHT22;6658;53.080;7.428;2022-08-11T17:55:56;27.60;75.20
13186;DHT22;6658;53.080;7.428;2022-08-11T17:58:41;27.60;75.40
13186;DHT22;6658;53.080;7.428;2022-08-11T18:01:26;27.50;75.70
13186;DHT22;6658;53.080;7.428;2022-08-11T18:03:53;27.40;76.10
13186;DHT22;6658;53.080;7.428;2022-08-11T18:06:20;27.20;76.60
13186;DHT22;6658;53.080;7.428;2022-08-11T18:08:48;27.10;77.30
13186;DHT22;6658;53.080;7.428;2022-08-11T18:11:33;27.00;77.20
13186;DHT22;6658;53.080;7.428;2022-08-11T18:14:20;26.80;77.70
13186;DHT22;6658;53.080;7.428;2022-08-11T18:17:05;26.70;78.50
13186;DHT22;6658;53.080;7.428;2022-08-11T18:19:49;26.50;79.30
13186;DHT22;6658;53.080;7.428;2022-08-11T18:22:40;26.50;80.00
13186;DHT22;6658;53.080;7.428;2022-08-11T18:25:32;26.30;80.60
13186;DHT22;6658;53.080;7.428;2022-08-11T18:28:23;26.30;81.50
13186;DHT22;6658;53.080;7.428;2022-08-11T18:31:12;26.20;82.60
13186;DHT22;6658;53.080;7.428;2022-08-11T18:34:01;26.00;82.90
13186;DHT22;6658;53.080;7.428;2022-08-11T18:39:43;25.90;84.20
13186;DHT22;6658;53.080;7.428;2022-08-11T18:42:30;25.80;85.60
13186;DHT22;6658;53.080;7.428;2022-08-11T18:45:16;25.60;86.00
13186;DHT22;6658;53.080;7.428;2022-08-11T18:48:03;25.40;86.90
13186;DHT22;6658;53.080;7.428;2022-08-11T18:50:50;25.30;87.70
13186;DHT22;6658;53.080;7.428;2022-08-11T18:53:38;25.10;89.00
13186;DHT22;6658;53.080;7.428;2022-08-11T18:56:24;25.00;90.00
13186;DHT22;6658;53.080;7.428;2022-08-11T18:59:10;24.80;90.60
13186;DHT22;6658;53.080;7.428;2022-08-11T19:01:55;24.70;91.10
13186;DHT22;6658;53.080;7.428;2022-08-11T19:04:40;24.60;91.70
13186;DHT22;6658;53.080;7.428;2022-08-11T19:07:27;24.40;91.90
13186;DHT22;6658;53.080;7.428;2022-08-11T19:10:14;24.30;92.30
13186;DHT22;6658;53.080;7.428;2022-08-11T19:12:59;24.20;92.50
13186;DHT22;6658;53.080;7.428;2022-08-11T19:15:45;24.10;92.70
13186;DHT22;6658;53.080;7.428;2022-08-11T19:18:32;24.00;92.70
13186;DHT22;6658;53.080;7.428;2022-08-11T19:21:17;23.90;93.00
13186;DHT22;6658;53.080;7.428;2022-08-11T19:24:04;23.80;93.10
13186;DHT22;6658;53.080;7.428;2022-08-11T19:26:52;23.70;93.40
13186;DHT22;6658;53.080;7.428;2022-08-11T19:29:38;23.60;93.70
13186;DHT22;6658;53.080;7.428;2022-08-11T19:32:26;23.50;93.90
13186;DHT22;6658;53.080;7.428;2022-08-11T19:35:11;23.50;94.10
13186;DHT22;6658;53.080;7.428;2022-08-11T19:37:57;23.40;94.20
13186;DHT22;6658;53.080;7.428;2022-08-11T19:40:43;23.30;94.40
13186;DHT22;6658;53.080;7.428;2022-08-11T19:43:29;23.30;94.60
13186;DHT22;6658;53.080;7.428;2022-08-11T19:46:17;23.20;95.00
13186;DHT22;6658;53.080;7.428;2022-08-11T19:49:03;23.10;95.20
13186;DHT22;6658;53.080;7.428;2022-08-11T19:51:49;23.00;95.40
13186;DHT22;6658;53.080;7.428;2022-08-11T19:54:35;22.90;95.80
13186;DHT22;6658;53.080;7.428;2022-08-11T19:57:22;22.80;96.10
13186;DHT22;6658;53.080;7.428;2022-08-11T20:00:14;22.70;96.70
13186;DHT22;6658;53.080;7.428;2022-08-11T20:02:59;22.60;97.10
13186;DHT22;6658;53.080;7.428;2022-08-11T20:05:45;22.50;97.50
13186;DHT22;6658;53.080;7.428;2022-08-11T20:08:30;22.40;97.80
13186;DHT22;6658;53.080;7.428;2022-08-11T20:11:16;22.40;98.30
13186;DHT22;6658;53.080;7.428;2022-08-11T20:14:02;22.30;98.60
13186;DHT22;6658;53.080;7.428;2022-08-11T20:16:47;22.20;99.00
13186;DHT22;6658;53.080;7.428;2022-08-11T20:19:36;22.20;99.30